VCV3492 SVMI-MUHA
Flight info
| Callsign | VCV3492 |
|---|---|
| Flight time | N/A |
| Altitude | 38000 |
| Route | MARES1 MARES DCT AVELO UA315 PJG UL220 ABA UL332 AMBIN/N0473F400 UL332 UCL HERFO2A |
| Aircraft | A346/H-SDE2E3FGHIJ3J4J5M1RWXY/LB1D1 |
Departure
| Time | N/A |
|---|---|
| Airport | Maiquetía Simón Bolívar International Airport (SVMI) |
Arrival
| Time | 2026-05-07 04:24 |
|---|---|
| Airport | José Martí International Airport (MUHA) |
| Time | Latitude | Longitude | Altitude | Speed | Heading |
|---|---|---|---|---|---|
| 2026-05-07 03:59 | 21.72275 | -81.76580 | 35247 ft | 455 kts | 299° |
| 2026-05-07 03:59 | 21.73790 | -81.79581 | 34613 ft | 456 kts | 299° |
| 2026-05-07 03:59 | 21.75309 | -81.82592 | 33954 ft | 459 kts | 300° |
| 2026-05-07 03:59 | 21.76836 | -81.85620 | 33230 ft | 460 kts | 300° |
| 2026-05-07 04:00 | 21.78365 | -81.88650 | 32548 ft | 461 kts | 299° |
| 2026-05-07 04:00 | 21.79880 | -81.91655 | 31902 ft | 462 kts | 299° |
| 2026-05-07 04:00 | 21.81438 | -81.94746 | 31231 ft | 463 kts | 299° |
| 2026-05-07 04:00 | 21.82956 | -81.97762 | 30556 ft | 465 kts | 299° |
| 2026-05-07 04:01 | 21.84498 | -82.00826 | 29834 ft | 466 kts | 299° |
| 2026-05-07 04:01 | 21.86044 | -82.03900 | 29029 ft | 468 kts | 299° |
| 2026-05-07 04:01 | 21.87600 | -82.06998 | 28226 ft | 470 kts | 299° |
| 2026-05-07 04:01 | 21.89156 | -82.10099 | 27471 ft | 471 kts | 299° |
| 2026-05-07 04:02 | 21.90731 | -82.13237 | 26942 ft | 467 kts | 299° |
| 2026-05-07 04:02 | 21.92270 | -82.16306 | 26432 ft | 463 kts | 299° |
| 2026-05-07 04:02 | 21.93799 | -82.19356 | 25856 ft | 461 kts | 300° |
| 2026-05-07 04:02 | 21.95321 | -82.22393 | 25329 ft | 459 kts | 299° |
| 2026-05-07 04:03 | 21.96835 | -82.25414 | 24837 ft | 456 kts | 299° |
| 2026-05-07 04:03 | 21.98336 | -82.28411 | 24354 ft | 453 kts | 299° |
| 2026-05-07 04:03 | 21.99802 | -82.31343 | 23880 ft | 451 kts | 299° |
| 2026-05-07 04:03 | 22.01287 | -82.34299 | 24440 ft | 444 kts | 298° |
| 2026-05-07 04:04 | 22.02753 | -82.37226 | 23498 ft | 446 kts | 298° |
| 2026-05-07 04:04 | 22.04235 | -82.40204 | 22335 ft | 454 kts | 298° |
| 2026-05-07 04:04 | 22.05734 | -82.43218 | 21658 ft | 457 kts | 298° |
| 2026-05-07 04:04 | 22.07229 | -82.46248 | 20302 ft | 454 kts | 300° |
| 2026-05-07 04:05 | 22.08701 | -82.49221 | 20049 ft | 444 kts | 300° |
| 2026-05-07 04:05 | 22.10163 | -82.52150 | 19817 ft | 443 kts | 300° |
| 2026-05-07 04:05 | 22.11625 | -82.55073 | 19559 ft | 441 kts | 300° |
| 2026-05-07 04:05 | 22.13074 | -82.57976 | 19281 ft | 439 kts | 300° |
| 2026-05-07 04:06 | 22.14516 | -82.60871 | 18910 ft | 436 kts | 300° |
| 2026-05-07 04:06 | 22.15926 | -82.63705 | 18497 ft | 433 kts | 301° |
| 2026-05-07 04:06 | 22.17364 | -82.66598 | 17990 ft | 429 kts | 301° |
| 2026-05-07 04:06 | 22.18770 | -82.69427 | 17497 ft | 425 kts | 301° |
| 2026-05-07 04:07 | 22.20159 | -82.72222 | 17021 ft | 421 kts | 301° |
| 2026-05-07 04:07 | 22.21536 | -82.74994 | 16545 ft | 417 kts | 301° |
| 2026-05-07 04:07 | 22.22888 | -82.77719 | 16087 ft | 414 kts | 301° |
| 2026-05-07 04:07 | 22.24242 | -82.80451 | 15618 ft | 411 kts | 301° |
| 2026-05-07 04:08 | 22.25606 | -82.83202 | 15148 ft | 408 kts | 301° |
| 2026-05-07 04:08 | 22.27209 | -82.85640 | 14658 ft | 401 kts | 317° |
| 2026-05-07 04:08 | 22.29389 | -82.87485 | 14204 ft | 392 kts | 334° |
| 2026-05-07 04:08 | 22.31867 | -82.88654 | 13769 ft | 386 kts | 343° |
| 2026-05-07 04:09 | 22.34381 | -82.89640 | 13268 ft | 383 kts | 343° |
| 2026-05-07 04:09 | 22.36882 | -82.90606 | 12822 ft | 380 kts | 343° |
| 2026-05-07 04:09 | 22.39363 | -82.91578 | 12378 ft | 377 kts | 343° |
| 2026-05-07 04:09 | 22.41815 | -82.92554 | 11943 ft | 374 kts | 342° |
| 2026-05-07 04:10 | 22.44247 | -82.93530 | 11506 ft | 371 kts | 342° |
| 2026-05-07 04:10 | 22.46648 | -82.94500 | 11087 ft | 368 kts | 342° |
| 2026-05-07 04:10 | 22.49014 | -82.95459 | 10897 ft | 356 kts | 342° |
| 2026-05-07 04:10 | 22.51293 | -82.96384 | 10772 ft | 343 kts | 342° |
| 2026-05-07 04:11 | 22.53482 | -82.97273 | 10637 ft | 331 kts | 342° |
| 2026-05-07 04:11 | 22.55597 | -82.98130 | 10514 ft | 319 kts | 342° |
| 2026-05-07 04:11 | 22.57637 | -82.98958 | 10406 ft | 307 kts | 342° |
| 2026-05-07 04:11 | 22.59601 | -82.99755 | 10300 ft | 296 kts | 342° |
| 2026-05-07 04:12 | 22.61491 | -83.00522 | 10213 ft | 286 kts | 342° |
| 2026-05-07 04:12 | 22.63331 | -83.01268 | 10126 ft | 280 kts | 342° |
| 2026-05-07 04:12 | 22.65159 | -83.02008 | 9862 ft | 281 kts | 342° |
| 2026-05-07 04:12 | 22.66992 | -83.02750 | 9519 ft | 281 kts | 342° |
| 2026-05-07 04:13 | 22.68812 | -83.03488 | 9212 ft | 280 kts | 342° |
| 2026-05-07 04:13 | 22.70647 | -83.04214 | 8888 ft | 279 kts | 347° |
| 2026-05-07 04:13 | 22.72548 | -83.04327 | 8542 ft | 273 kts | 15° |
| 2026-05-07 04:13 | 22.74244 | -83.03477 | 8217 ft | 268 kts | 41° |
| 2026-05-07 04:14 | 22.75394 | -83.01920 | 7885 ft | 264 kts | 67° |
| 2026-05-07 04:14 | 22.75916 | -83.00272 | 7640 ft | 262 kts | 75° |
| 2026-05-07 04:14 | 22.76427 | -82.98370 | 7333 ft | 263 kts | 76° |
| 2026-05-07 04:14 | 22.76938 | -82.96463 | 7037 ft | 263 kts | 76° |
| 2026-05-07 04:15 | 22.77454 | -82.94565 | 6738 ft | 263 kts | 76° |
| 2026-05-07 04:15 | 22.77982 | -82.92650 | 6428 ft | 263 kts | 76° |
| 2026-05-07 04:15 | 22.78511 | -82.90742 | 6111 ft | 263 kts | 76° |
| 2026-05-07 04:15 | 22.79039 | -82.88841 | 5806 ft | 263 kts | 75° |
| 2026-05-07 04:16 | 22.79567 | -82.86943 | 5497 ft | 263 kts | 75° |
| 2026-05-07 04:16 | 22.80096 | -82.85048 | 5206 ft | 262 kts | 75° |
| 2026-05-07 04:16 | 22.80624 | -82.83154 | 4904 ft | 262 kts | 75° |
| 2026-05-07 04:16 | 22.81151 | -82.81265 | 4629 ft | 261 kts | 75° |
| 2026-05-07 04:17 | 22.81675 | -82.79387 | 4354 ft | 259 kts | 75° |
| 2026-05-07 04:17 | 22.82196 | -82.77518 | 4069 ft | 258 kts | 75° |
| 2026-05-07 04:17 | 22.82716 | -82.75652 | 3783 ft | 257 kts | 75° |
| 2026-05-07 04:17 | 22.83232 | -82.73794 | 3505 ft | 257 kts | 74° |
| 2026-05-07 04:18 | 22.83746 | -82.71943 | 3223 ft | 256 kts | 74° |
| 2026-05-07 04:18 | 22.84257 | -82.70111 | 3091 ft | 248 kts | 74° |
| 2026-05-07 04:18 | 22.84737 | -82.68393 | 3078 ft | 234 kts | 74° |
| 2026-05-07 04:18 | 22.85193 | -82.66751 | 3073 ft | 222 kts | 74° |
| 2026-05-07 04:19 | 22.85637 | -82.65154 | 3026 ft | 220 kts | 74° |
| 2026-05-07 04:19 | 22.86077 | -82.63567 | 2902 ft | 219 kts | 74° |
| 2026-05-07 04:19 | 22.86515 | -82.61987 | 2750 ft | 219 kts | 74° |
| 2026-05-07 04:19 | 22.86955 | -82.60401 | 2459 ft | 221 kts | 74° |
| 2026-05-07 04:20 | 22.87403 | -82.58798 | 2154 ft | 223 kts | 70° |
| 2026-05-07 04:20 | 22.88087 | -82.57299 | 1989 ft | 219 kts | 58° |
| 2026-05-07 04:20 | 22.88935 | -82.55965 | 1971 ft | 208 kts | 54° |
| 2026-05-07 04:21 | 22.90635 | -82.53471 | 1988 ft | 196 kts | 55° |
| 2026-05-07 04:21 | 22.91392 | -82.52333 | 1992 ft | 178 kts | 56° |
| 2026-05-07 04:21 | 22.92095 | -82.51264 | 1958 ft | 166 kts | 56° |
| 2026-05-07 04:21 | 22.92746 | -82.50271 | 1889 ft | 159 kts | 56° |
| 2026-05-07 04:22 | 22.93378 | -82.49309 | 1690 ft | 154 kts | 57° |
| 2026-05-07 04:22 | 22.93998 | -82.48365 | 1493 ft | 153 kts | 57° |
| 2026-05-07 04:22 | 22.94613 | -82.47429 | 1311 ft | 152 kts | 57° |
| 2026-05-07 04:22 | 22.95229 | -82.46492 | 1123 ft | 152 kts | 56° |
| 2026-05-07 04:23 | 22.95843 | -82.45562 | 928 ft | 151 kts | 57° |
| 2026-05-07 04:23 | 22.96456 | -82.44635 | 733 ft | 151 kts | 57° |
| 2026-05-07 04:23 | 22.97055 | -82.43702 | 530 ft | 150 kts | 55° |
| 2026-05-07 04:23 | 22.97668 | -82.42782 | 352 ft | 149 kts | 54° |
| 2026-05-07 04:24 | 22.98260 | -82.41891 | 226 ft | 131 kts | 54° |
| 2026-05-07 04:24 | 22.98670 | -82.41276 | 228 ft | 74 kts | 54° |
| 2026-05-07 04:24 | 22.98890 | -82.40944 | 228 ft | 45 kts | 54° |
| 2026-05-07 04:24 | 22.99069 | -82.40674 | 224 ft | 43 kts | 54° |
| 2026-05-07 04:25 | 22.99220 | -82.40453 | 229 ft | 22 kts | 44° |
| 2026-05-07 04:25 | 22.99323 | -82.40414 | 228 ft | 16 kts | 8° |
| 2026-05-07 04:25 | 22.99439 | -82.40396 | 228 ft | 18 kts | 2° |
| 2026-05-07 04:25 | 22.99557 | -82.40460 | 229 ft | 20 kts | 320° |
| 2026-05-07 04:26 | 22.99574 | -82.40517 | 228 ft | 4 kts | 280° |
| 2026-05-07 04:26 | 22.99588 | -82.40556 | 231 ft | 7 kts | 299° |
| 2026-05-07 04:26 | 22.99607 | -82.40591 | 229 ft | 1 kts | 301° |
| 2026-05-07 04:26 | 22.99616 | -82.40607 | 229 ft | 4 kts | 301° |
| 2026-05-07 04:27 | 22.99620 | -82.40615 | 230 ft | 0 kts | 301° |